Time;durP1;ratioP1;P1;durP2;ratioP2;P2;SDS_P1;SDS_P2;PMS_P1;PMS_P2;Temp;Humidity;BMP_temperature;BMP_pressure;BME280_temperature;BME280_humidity;BME280_pressure;Samples;Min_cycle;Max_cycle;Signal;HPM_P1;HPM_P2
2023/07/24 00:00:40;;;;;;;9.82;6.88;;;19.50;93.90;;;21.43;56.19;96963.28;5032614;28;20052;-46
2023/07/24 00:03:08;;;;;;;10.48;6.00;;;19.40;95.80;;;21.41;56.12;96956.47;5030969;28;20048;-46
2023/07/24 00:05:35;;;;;;;10.55;7.45;;;19.30;97.50;;;21.39;56.04;96948.59;5032052;28;20436;-46
2023/07/24 00:08:03;;;;;;;9.38;6.22;;;19.30;97.20;;;21.41;56.39;96941.03;5031573;28;20037;-47
2023/07/24 00:10:31;;;;;;;12.35;7.05;;;19.40;97.50;;;21.33;57.32;96937.94;5032346;28;20045;-47
2023/07/24 00:12:59;;;;;;;10.43;6.72;;;19.30;99.00;;;21.21;57.63;96936.13;5030904;28;20042;-47
2023/07/24 00:15:26;;;;;;;10.40;7.05;;;19.20;99.90;;;21.18;57.75;96943.91;5032426;28;20049;-47
2023/07/24 00:17:54;;;;;;;10.52;7.72;;;19.10;99.90;;;21.12;57.80;96936.78;5031839;28;20045;-46
2023/07/24 00:20:24;;;;;;;9.45;6.20;;;19.00;99.90;;;21.12;57.60;96921.38;5029478;28;20053;-47
2023/07/24 00:22:51;;;;;;;9.25;6.68;;;19.00;99.90;;;21.19;57.27;96927.44;5014037;28;20053;-47
2023/07/24 00:25:19;;;;;;;8.35;6.32;;;19.20;99.90;;;21.26;57.04;96939.97;5031868;28;20052;-51
2023/07/24 00:27:47;;;;;;;10.75;6.43;;;19.30;99.10;;;21.24;57.48;96932.91;5031431;28;20496;-47
2023/07/24 00:30:14;;;;;;;9.70;6.10;;;19.40;99.90;;;21.20;57.65;96925.53;5030312;28;20505;-44
2023/07/24 00:32:43;;;;;;;10.40;7.28;;;19.30;99.90;;;21.16;57.75;96927.09;5014067;28;20220;-51
2023/07/24 00:35:11;;;;;;;10.38;6.00;;;19.30;99.90;;;21.17;57.07;96920.63;5030279;28;20054;-46
2023/07/24 00:37:39;;;;;;;10.02;7.13;;;19.20;99.90;;;21.17;57.34;96917.91;5030262;28;20057;-48
2023/07/24 00:40:08;;;;;;;12.25;6.25;;;19.20;99.60;;;21.17;56.88;96913.34;5030564;28;20521;-47
2023/07/24 00:42:35;;;;;;;10.23;6.43;;;19.20;99.30;;;21.09;57.52;96908.31;5031310;28;20053;-44
2023/07/24 00:45:03;;;;;;;9.05;5.97;;;19.10;99.90;;;21.01;57.13;96908.72;5031362;28;20045;-49
2023/07/24 00:47:32;;;;;;;9.75;5.90;;;19.00;99.60;;;20.97;57.30;96902.19;5029727;28;20386;-46
2023/07/24 00:50:00;;;;;;;9.93;6.82;;;18.90;99.90;;;20.91;57.44;96906.69;5029916;28;20041;-48
2023/07/24 00:52:28;;;;;;;10.25;6.15;;;18.90;99.90;;;20.91;57.63;96901.28;5031357;28;20053;-48
2023/07/24 00:54:55;;;;;;;11.10;7.00;;;18.90;99.90;;;20.95;57.27;96898.91;5030358;28;20072;-46
2023/07/24 00:57:23;;;;;;;9.90;7.15;;;18.90;99.90;;;20.97;57.28;96886.75;5029560;28;20504;-49
2023/07/24 00:59:52;;;;;;;12.57;6.70;;;19.00;99.90;;;21.01;57.19;96889.78;5013019;28;20049;-48
2023/07/24 01:02:20;;;;;;;10.55;6.13;;;19.10;99.30;;;21.03;57.15;96885.78;5030193;28;20052;-49
2023/07/24 01:04:48;;;;;;;12.18;7.28;;;19.10;99.40;;;21.04;56.85;96887.41;5029508;28;20493;-48
2023/07/24 01:07:16;;;;;;;9.55;6.53;;;19.10;98.00;;;21.01;57.03;96882.53;5030687;28;20052;-49
2023/07/24 01:09:44;;;;;;;10.68;6.45;;;19.10;98.10;;;20.98;56.73;96865.94;5029555;28;20064;-49
2023/07/24 01:12:27;;;;;;;9.75;6.88;;;19.10;97.40;;;20.96;56.62;96860.78;5031128;28;20045;-46
2023/07/24 01:15:03;;;;;;;;;;;19.00;98.90;;;20.92;56.91;96861.50;5030243;28;20106;-45
2023/07/24 01:17:32;;;;;;;11.35;6.68;;;19.00;99.50;;;20.90;56.64;96864.47;5029245;28;19921;-49
2023/07/24 01:20:03;;;;;;;10.00;7.13;;;18.80;99.00;;;20.90;56.74;96869.03;5021214;28;20045;-49
2023/07/24 01:23:19;;;;;;;10.35;5.90;;;18.90;99.30;;;20.87;56.65;96856.84;5013313;28;20067;-48
2023/07/24 01:25:59;;;;;;;9.82;6.28;;;18.90;99.70;;;20.89;56.62;96862.81;5027813;28;20053;-49
2023/07/24 01:28:27;;;;;;;11.82;6.55;;;18.90;98.70;;;20.90;56.63;96858.22;5029069;28;20149;-46
2023/07/24 01:30:55;;;;;;;11.63;6.85;;;19.00;97.10;;;20.90;56.55;96856.34;5030525;28;20049;-50
2023/07/24 01:33:24;;;;;;;9.50;6.80;;;19.00;97.50;;;20.90;56.78;96856.34;5029475;28;20133;-50
2023/07/24 01:36:00;;;;;;;9.40;6.25;;;19.00;97.10;;;20.90;57.11;96853.66;5030119;28;20056;-50
2023/07/24 01:38:30;;;;;;;8.63;6.13;;;19.10;97.90;;;20.94;56.72;96854.00;5028891;28;20053;-50
2023/07/24 01:41:00;;;;;;;11.10;7.30;;;19.10;96.20;;;20.96;56.43;96843.75;5021228;28;20428;-46
2023/07/24 01:43:30;;;;;;;8.75;6.43;;;19.10;96.40;;;20.95;56.63;96851.00;5021615;28;20284;-47
2023/07/24 01:45:58;;;;;;;10.60;6.63;;;19.10;95.50;;;20.96;56.85;96849.16;5030547;28;20052;-49
2023/07/24 01:48:26;;;;;;;8.90;5.72;;;19.10;95.90;;;20.95;56.30;96847.50;5030105;28;20045;-51
2023/07/24 01:50:54;;;;;;;10.50;7.07;;;19.10;95.70;;;20.97;56.83;96850.78;5030952;28;20064;-48
2023/07/24 01:53:22;;;;;;;11.13;6.82;;;19.10;96.60;;;20.99;56.92;96856.75;5028924;28;20049;-47
2023/07/24 01:55:49;;;;;;;10.63;7.22;;;19.20;97.50;;;20.98;57.39;96849.72;5031336;28;20053;-48
2023/07/24 01:58:17;;;;;;;9.73;6.75;;;19.20;98.20;;;20.96;57.23;96857.25;5033433;28;20429;-50
2023/07/24 02:00:45;;;;;;;10.20;6.97;;;19.10;97.60;;;20.94;57.30;96854.00;5033851;28;20049;-48
2023/07/24 02:03:12;;;;;;;11.15;7.47;;;19.00;97.70;;;20.94;57.02;96862.91;5035081;28;20409;-47
2023/07/24 02:05:40;;;;;;;11.13;7.13;;;19.00;98.10;;;20.91;56.97;96866.09;5033558;28;20441;-47
2023/07/24 02:08:07;;;;;;;11.13;7.40;;;19.00;98.00;;;20.91;57.08;96863.41;5032831;28;20050;-44
2023/07/24 02:10:38;;;;;;;9.98;6.68;;;19.00;97.60;;;20.89;57.25;96862.81;5033524;28;20053;-49
2023/07/24 02:13:07;;;;;;;10.80;6.82;;;19.00;97.60;;;20.88;57.01;96855.78;5026075;28;20421;-47
2023/07/24 02:15:35;;;;;;;10.73;6.22;;;19.00;97.60;;;20.87;56.77;96854.13;5034364;28;20045;-51
2023/07/24 02:18:04;;;;;;;9.13;5.95;;;19.00;97.20;;;20.86;56.87;96849.81;5032680;28;20064;-50
2023/07/24 02:20:32;;;;;;;13.05;7.40;;;19.00;96.80;;;20.83;57.07;96848.41;5033346;28;20049;-48
2023/07/24 02:23:00;;;;;;;11.20;6.60;;;19.00;96.70;;;20.82;57.14;96837.81;5032787;28;20065;-47
2023/07/24 02:25:28;;;;;;;10.93;7.25;;;19.00;96.60;;;20.81;56.75;96844.31;5033316;28;20060;-51
2023/07/24 02:27:55;;;;;;;9.52;5.82;;;19.00;95.60;;;20.80;56.64;96840.78;5031524;28;20420;-47
2023/07/24 02:30:23;;;;;;;9.10;6.10;;;19.00;95.60;;;20.78;56.92;96837.50;5033960;28;20037;-45
2023/07/24 02:32:51;;;;;;;10.10;6.68;;;18.90;95.90;;;20.76;56.68;96833.41;5032729;28;20054;-48
2023/07/24 02:35:19;;;;;;;11.52;7.22;;;18.90;96.30;;;20.70;56.92;96837.91;5033933;28;20049;-49
2023/07/24 02:37:46;;;;;;;9.30;6.80;;;18.80;96.70;;;20.65;56.88;96837.84;5032504;28;20289;-49
2023/07/24 02:40:14;;;;;;;9.75;6.45;;;18.70;97.00;;;20.59;57.03;96830.69;5032874;28;20053;-49
2023/07/24 02:42:41;;;;;;;8.68;6.65;;;18.60;97.50;;;20.54;57.07;96819.75;5032013;28;20061;-47
2023/07/24 02:45:10;;;;;;;11.15;7.35;;;18.60;98.40;;;20.49;57.43;96817.81;5032884;28;20052;-48
2023/07/24 02:47:38;;;;;;;8.85;6.00;;;18.60;98.40;;;20.49;57.41;96817.81;5033273;28;20421;-46
2023/07/24 02:50:06;;;;;;;9.48;6.63;;;18.60;97.80;;;20.46;57.29;96818.28;5032646;28;20053;-46
2023/07/24 02:52:34;;;;;;;12.73;6.53;;;18.60;98.10;;;20.45;57.31;96825.59;5033930;28;20433;-48
2023/07/24 02:55:02;;;;;;;12.23;7.18;;;18.70;97.20;;;20.46;57.20;96821.00;5032735;28;20054;-50
2023/07/24 02:57:29;;;;;;;10.00;5.75;;;18.70;96.90;;;20.46;57.25;96810.97;5031764;28;20474;-46
2023/07/24 02:59:57;;;;;;;10.88;6.68;;;18.70;96.10;;;20.48;57.19;96812.63;5015503;28;20045;-49
2023/07/24 03:02:25;;;;;;;11.80;7.13;;;18.70;95.80;;;20.51;57.19;96820.25;5032703;28;20413;-45
2023/07/24 03:04:52;;;;;;;11.00;6.28;;;18.80;95.20;;;20.50;56.88;96805.91;5031841;28;20394;-48
2023/07/24 03:07:20;;;;;;;12.68;7.25;;;18.70;94.10;;;20.50;56.50;96789.69;5031267;28;20049;-49
2023/07/24 03:09:47;;;;;;;10.20;7.05;;;18.70;94.40;;;20.50;56.26;96794.28;5015697;28;20045;-49
2023/07/24 03:12:15;;;;;;;12.90;7.75;;;18.70;93.70;;;20.47;56.26;96790.16;5015832;28;20048;-50
2023/07/24 03:14:43;;;;;;;10.43;6.85;;;18.70;92.90;;;20.43;56.11;96791.72;5031912;28;20045;-49
2023/07/24 03:17:11;;;;;;;11.18;6.53;;;18.60;92.60;;;20.42;56.09;96793.63;5031737;28;20041;-47
2023/07/24 03:19:40;;;;;;;9.38;6.35;;;18.60;92.30;;;20.43;56.09;96792.56;5030797;28;20041;-47
2023/07/24 03:22:08;;;;;;;9.80;5.82;;;18.60;91.90;;;20.42;55.74;96801.72;5031348;28;20045;-48
2023/07/24 03:24:36;;;;;;;11.52;7.45;;;18.60;91.10;;;20.40;55.92;96792.25;5032007;28;20049;-45
2023/07/24 03:27:03;;;;;;;9.80;6.50;;;18.60;91.30;;;20.41;55.71;96788.44;5031143;28;20520;-50
2023/07/24 03:29:31;;;;;;;12.35;6.80;;;18.60;91.20;;;20.44;55.33;96796.09;5031934;28;20041;-46
2023/07/24 03:31:59;;;;;;;10.63;6.43;;;18.60;90.00;;;20.42;55.39;96798.22;5033036;28;20029;-46
2023/07/24 03:34:27;;;;;;;9.70;6.13;;;18.60;90.40;;;20.48;55.46;96801.81;5033005;28;20056;-47
2023/07/24 03:36:55;;;;;;;9.30;6.40;;;18.70;89.70;;;20.52;55.09;96803.78;5030763;28;20049;-47
2023/07/24 03:39:22;;;;;;;13.57;7.05;;;18.80;88.30;;;20.55;54.65;96807.88;5031797;28;20056;-48
2023/07/24 03:41:50;;;;;;;8.85;6.13;;;18.80;87.00;;;20.59;54.46;96796.38;5031802;28;20046;-49
2023/07/24 03:44:17;;;;;;;9.32;6.32;;;18.90;86.60;;;20.64;54.43;96784.81;5032578;28;20088;-48
2023/07/24 03:46:45;;;;;;;9.18;6.28;;;19.00;85.40;;;20.65;54.13;96781.84;5032186;28;20034;-47
2023/07/24 03:49:13;;;;;;;10.45;6.20;;;19.00;84.20;;;20.67;53.77;96786.22;5032780;28;20037;-49
2023/07/24 03:51:41;;;;;;;10.55;5.75;;;19.00;83.90;;;20.64;53.75;96790.22;5032508;28;20060;-51
2023/07/24 03:54:08;;;;;;;9.32;5.68;;;18.90;83.80;;;20.61;53.52;96788.84;5032598;28;20065;-46
2023/07/24 03:56:36;;;;;;;10.65;6.18;;;18.90;83.80;;;20.65;53.35;96791.88;5031134;28;20042;-49
2023/07/24 03:59:05;;;;;;;11.30;6.47;;;19.00;83.10;;;20.62;53.68;96803.97;5032303;28;20045;-48
2023/07/24 04:01:33;;;;;;;11.48;5.90;;;18.90;83.20;;;20.57;53.34;96812.00;5032401;28;20433;-44
2023/07/24 04:04:01;;;;;;;9.55;6.72;;;18.90;82.50;;;20.54;53.37;96806.25;5031364;28;20516;-48
2023/07/24 04:06:28;;;;;;;12.30;7.22;;;18.90;82.20;;;20.61;53.36;96794.25;5032499;28;20038;-46
2023/07/24 04:08:57;;;;;;;12.00;6.38;;;18.90;82.50;;;20.68;53.19;96796.75;5031585;28;20060;-48
2023/07/24 04:11:25;;;;;;;10.30;6.93;;;19.00;82.00;;;20.76;52.95;96799.06;5032315;28;20060;-48
2023/07/24 04:13:53;;;;;;;9.40;6.25;;;19.10;81.70;;;20.83;52.61;96804.31;5032221;28;20085;-47
2023/07/24 04:16:20;;;;;;;10.45;5.85;;;19.20;80.70;;;20.90;52.73;96786.03;5032381;28;20417;-48
2023/07/24 04:18:48;;;;;;;9.82;6.13;;;19.30;80.20;;;20.94;52.46;96778.25;5031104;28;20188;-47
2023/07/24 04:21:15;;;;;;;10.02;5.85;;;19.30;79.70;;;20.96;52.72;96767.97;5031892;28;20493;-46
2023/07/24 04:23:43;;;;;;;10.07;6.68;;;19.30;79.60;;;21.00;52.63;96763.72;5032026;28;20092;-47
2023/07/24 04:26:11;;;;;;;9.85;6.30;;;19.30;79.60;;;21.01;52.39;96752.66;5030929;28;20049;-50
2023/07/24 04:28:38;;;;;;;8.95;6.00;;;19.40;79.40;;;21.04;52.00;96760.25;5031437;28;20400;-47
2023/07/24 04:31:06;;;;;;;11.45;6.43;;;19.40;78.90;;;21.07;51.94;96763.50;5031724;28;20469;-48
2023/07/24 04:33:33;;;;;;;10.02;7.10;;;19.40;77.90;;;21.02;52.19;96758.88;5030991;28;20041;-49
2023/07/24 04:36:01;;;;;;;9.55;5.97;;;19.40;78.30;;;21.00;52.05;96761.00;5031797;28;20041;-46
2023/07/24 04:38:28;;;;;;;8.10;6.43;;;19.30;77.80;;;21.00;51.58;96766.41;5031800;28;20045;-45
2023/07/24 04:40:56;;;;;;;9.90;6.72;;;19.30;77.40;;;21.03;51.78;96764.03;5031657;28;20052;-47
2023/07/24 04:43:24;;;;;;;10.98;7.07;;;19.40;76.80;;;21.09;51.70;96753.25;5031761;28;20397;-47
2023/07/24 04:45:51;;;;;;;9.60;6.20;;;19.50;76.80;;;21.11;51.32;96753.81;5031652;28;20053;-44
2023/07/24 04:48:19;;;;;;;10.45;6.07;;;19.50;75.90;;;21.17;51.74;96744.69;5023003;28;20417;-45
2023/07/24 04:50:53;;;;;;;8.48;5.97;;;19.50;75.70;;;21.23;51.25;96732.91;5031443;28;20046;-45
2023/07/24 04:53:21;;;;;;;10.82;5.93;;;19.60;75.00;;;21.29;51.39;96731.06;5022448;28;20042;-46
2023/07/24 04:55:49;;;;;;;11.07;6.43;;;19.70;74.60;;;21.35;51.14;96730.88;5031215;28;20033;-49
2023/07/24 04:58:16;;;;;;;8.57;6.35;;;19.80;73.60;;;21.41;51.17;96735.28;5030614;28;20057;-45
2023/07/24 05:00:44;;;;;;;10.85;6.57;;;19.90;74.40;;;21.47;50.98;96733.47;5031653;28;20048;-51
2023/07/24 05:03:12;;;;;;;8.27;5.97;;;19.90;73.10;;;21.52;50.47;96733.53;5031143;28;20049;-54
2023/07/24 05:05:39;;;;;;;10.25;6.63;;;20.00;73.00;;;21.55;51.41;96733.03;5031268;28;20493;-51
2023/07/24 05:08:12;;;;;;;9.30;6.15;;;20.00;74.30;;;21.58;51.73;96731.72;5030755;28;20046;-50
2023/07/24 05:10:39;;;;;;;9.13;6.43;;;20.00;74.60;;;21.58;51.31;96729.81;5031159;28;20044;-52
2023/07/24 05:13:07;;;;;;;8.75;6.07;;;20.00;75.00;;;21.58;51.77;96729.81;5030860;28;20520;-53
2023/07/24 05:15:36;;;;;;;11.13;7.03;;;19.90;75.10;;;21.55;51.54;96732.22;5031507;28;20048;-54
2023/07/24 05:18:04;;;;;;;7.95;6.15;;;19.80;75.20;;;21.54;51.76;96731.41;5031078;28;20159;-52
2023/07/24 05:20:31;;;;;;;9.50;6.45;;;19.80;76.10;;;21.53;52.12;96729.75;5031103;28;20049;-54
2023/07/24 05:22:59;;;;;;;9.52;6.20;;;19.80;76.50;;;21.48;51.92;96732.41;5030997;28;20041;-54
2023/07/24 05:25:26;;;;;;;10.82;6.40;;;19.70;76.60;;;21.45;51.47;96737.50;5029905;28;20153;-52
2023/07/24 05:27:54;;;;;;;10.80;6.95;;;19.70;74.90;;;21.41;50.97;96745.28;5029410;28;20045;-51
2023/07/24 05:30:22;;;;;;;12.80;6.80;;;19.70;73.70;;;21.39;50.80;96750.94;5029763;28;20048;-52
2023/07/24 05:32:49;;;;;;;8.95;6.47;;;19.70;73.00;;;21.41;50.22;96756.94;5031092;28;20273;-49
2023/07/24 05:35:17;;;;;;;12.07;6.43;;;19.70;71.70;;;21.46;50.13;96750.81;5030159;28;20508;-53
2023/07/24 05:37:45;;;;;;;13.75;7.72;;;19.90;69.90;;;21.46;49.86;96755.38;5030103;28;20041;-53
2023/07/24 05:40:12;;;;;;;9.80;6.63;;;19.90;69.70;;;21.41;49.96;96750.69;5030766;28;20045;-55
2023/07/24 05:42:43;;;;;;;11.30;6.55;;;19.90;69.40;;;21.49;49.83;96752.19;5028401;28;20049;-50
2023/07/24 05:45:11;;;;;;;13.40;6.78;;;19.90;69.30;;;21.55;49.45;96762.81;5030676;28;20057;-50
2023/07/24 05:47:38;;;;;;;9.77;5.97;;;20.00;69.10;;;21.62;49.63;96765.34;5030222;28;20045;-53
2023/07/24 05:50:06;;;;;;;10.65;6.32;;;20.10;68.80;;;21.65;49.11;96777.53;5031022;28;20045;-49
2023/07/24 05:52:34;;;;;;;9.50;6.47;;;20.10;68.00;;;21.63;49.22;96789.47;5031406;28;20452;-50
2023/07/24 05:55:03;;;;;;;11.05;5.72;;;20.10;68.60;;;21.67;49.53;96786.22;5030531;28;20489;-51
2023/07/24 05:57:30;;;;;;;11.75;6.70;;;20.10;69.20;;;21.70;49.65;96793.88;5030004;28;20052;-55
2023/07/24 05:59:58;;;;;;;10.48;6.75;;;20.20;68.90;;;21.71;49.49;96785.47;5030726;28;20045;-54
2023/07/24 06:02:25;;;;;;;10.38;6.78;;;20.20;68.20;;;21.78;49.40;96788.81;5030464;28;20448;-53
2023/07/24 06:04:53;;;;;;;10.05;7.05;;;20.30;68.00;;;21.76;49.56;96785.53;5030222;28;20382;-53
2023/07/24 06:07:20;;;;;;;9.95;7.07;;;20.30;67.70;;;21.80;49.08;96781.25;5029725;28;20041;-55
2023/07/24 06:09:48;;;;;;;8.55;5.55;;;20.40;67.30;;;21.83;49.25;96772.63;5030360;28;20041;-52
2023/07/24 06:12:16;;;;;;;11.85;6.82;;;20.40;67.10;;;21.88;49.20;96771.84;5028462;28;20136;-54
2023/07/24 06:14:44;;;;;;;9.15;6.78;;;20.50;66.80;;;21.90;48.99;96771.59;5030260;28;20053;-53
2023/07/24 06:17:11;;;;;;;10.75;6.70;;;20.50;66.50;;;21.92;48.67;96764.03;5029922;28;20500;-52
2023/07/24 06:19:39;;;;;;;9.75;7.38;;;20.60;66.30;;;21.97;48.71;96759.47;5022956;28;20060;-51
2023/07/24 06:22:07;;;;;;;9.30;6.95;;;20.60;66.50;;;22.03;48.89;96763.88;5027804;28;20050;-51
2023/07/24 06:24:34;;;;;;;14.50;7.00;;;20.60;66.00;;;22.03;48.79;96758.44;5029973;28;20041;-53
2023/07/24 06:27:02;;;;;;;12.52;7.30;;;20.70;65.80;;;22.02;48.62;96756.84;5029563;28;20041;-50
2023/07/24 06:29:30;;;;;;;10.95;6.40;;;20.60;66.00;;;22.08;48.92;96748.72;5022927;28;20048;-49
2023/07/24 06:31:58;;;;;;;11.32;7.50;;;20.80;65.70;;;22.09;48.66;96756.59;5029977;28;20037;-51
2023/07/24 06:34:25;;;;;;;14.73;7.00;;;20.80;65.80;;;22.12;48.96;96750.69;5029687;28;20034;-54
2023/07/24 06:36:53;;;;;;;10.88;7.15;;;20.80;66.00;;;22.21;49.08;96745.59;5029543;28;20034;-52
2023/07/24 06:39:23;;;;;;;11.82;7.05;;;20.80;65.90;;;22.27;48.91;96746.50;5029822;28;20053;-53
2023/07/24 06:41:55;;;;;;;10.80;6.78;;;20.90;65.80;;;22.32;48.55;96752.78;5031587;28;20094;-56
2023/07/24 06:44:22;;;;;;;11.50;7.57;;;21.00;64.90;;;22.31;48.31;96747.63;5032298;28;20045;-51
2023/07/24 06:46:50;;;;;;;11.05;7.00;;;21.00;64.90;;;22.38;48.32;96749.03;5033128;28;20513;-51
2023/07/24 06:49:17;;;;;;;9.90;6.70;;;21.10;64.50;;;22.44;48.16;96744.47;5033536;28;20068;-55
2023/07/24 06:51:45;;;;;;;10.57;6.97;;;21.20;64.20;;;22.51;48.08;96739.66;5033617;28;20112;-55
2023/07/24 06:54:12;;;;;;;12.75;7.65;;;21.30;63.90;;;22.55;47.76;96739.97;5033141;28;20045;-56
2023/07/24 06:56:40;;;;;;;9.27;6.13;;;21.30;63.70;;;22.62;48.04;96737.81;5033055;28;20049;-52
2023/07/24 06:59:08;;;;;;;8.48;7.38;;;21.40;63.80;;;22.71;48.15;96733.56;5031891;28;20075;-55
2023/07/24 07:01:35;;;;;;;13.77;7.47;;;21.50;64.00;;;22.78;48.07;96736.06;5033591;28;20403;-54
2023/07/24 07:04:03;;;;;;;10.55;7.72;;;21.60;64.00;;;22.83;48.29;96732.53;5033444;28;20516;-56
2023/07/24 07:06:31;;;;;;;10.00;6.53;;;21.60;64.20;;;22.87;47.80;96729.03;5031807;28;20520;-56
2023/07/24 07:08:58;;;;;;;9.35;7.38;;;21.60;64.00;;;22.86;47.73;96737.47;5032778;28;20049;-56
2023/07/24 07:11:26;;;;;;;11.13;6.32;;;21.60;63.80;;;22.90;47.48;96735.84;5033209;28;20045;-56
2023/07/24 07:13:53;;;;;;;9.25;6.90;;;21.60;63.30;;;22.92;47.16;96725.56;5031795;28;20049;-53
2023/07/24 07:16:21;;;;;;;11.77;7.38;;;21.60;62.30;;;22.95;47.24;96731.28;5033137;28;20052;-52
2023/07/24 07:18:49;;;;;;;10.27;6.93;;;21.70;62.60;;;23.01;47.25;96740.22;5027441;28;20409;-56
2023/07/24 07:21:16;;;;;;;12.07;7.07;;;21.70;62.90;;;23.04;47.70;96753.31;5019655;28;20041;-56
2023/07/24 07:23:44;;;;;;;10.43;7.03;;;21.70;63.60;;;23.06;47.72;96758.50;5020917;28;20117;-55
2023/07/24 07:26:14;;;;;;;12.05;7.63;;;21.70;63.90;;;23.07;47.70;96762.81;5029117;28;20046;-55
2023/07/24 07:28:41;;;;;;;10.63;6.82;;;21.70;63.90;;;23.06;47.37;96751.16;5032921;28;20038;-57
2023/07/24 07:31:09;;;;;;;8.27;6.95;;;21.70;64.10;;;23.08;47.27;96764.47;5032952;28;20048;-55
2023/07/24 07:33:36;;;;;;;12.07;7.65;;;21.70;63.10;;;23.10;47.54;96765.03;5033026;28;20413;-55
2023/07/24 07:36:05;;;;;;;11.88;7.68;;;21.80;63.00;;;23.12;47.48;96769.09;5032956;28;20041;-55
2023/07/24 07:38:33;;;;;;;11.75;6.40;;;21.80;63.00;;;23.13;47.77;96784.31;5032141;28;20305;-56
2023/07/24 07:41:05;;;;;;;12.23;8.05;;;21.80;63.10;;;23.12;47.56;96798.97;5032527;28;20493;-51
2023/07/24 07:43:33;;;;;;;11.05;6.85;;;21.80;63.40;;;23.12;47.48;96801.69;5032523;28;20046;-52
2023/07/24 07:46:00;;;;;;;11.02;6.53;;;21.80;63.70;;;23.13;47.73;96814.19;5028101;28;20125;-53
2023/07/24 07:48:28;;;;;;;9.18;6.32;;;21.80;63.60;;;23.14;47.89;96826.66;5030955;28;20412;-56
2023/07/24 07:50:55;;;;;;;9.43;6.38;;;21.70;64.10;;;23.15;47.68;96828.31;5032625;28;20042;-55
2023/07/24 07:53:23;;;;;;;9.43;6.57;;;21.70;64.20;;;23.18;48.55;96830.50;5031080;28;20038;-56
2023/07/24 07:55:59;;;;;;;11.70;7.05;;;21.80;66.40;;;23.18;49.15;96841.34;5032524;28;20037;-55
2023/07/24 07:58:27;;;;;;;9.75;6.50;;;21.70;68.10;;;23.18;49.49;96845.97;5031996;28;20046;-52
2023/07/24 08:00:55;;;;;;;12.20;8.05;;;21.70;67.60;;;23.18;49.91;96835.91;5028882;28;20397;-56
2023/07/24 08:03:23;;;;;;;12.73;8.23;;;21.70;68.70;;;23.17;50.21;96849.78;5031822;28;20054;-53
2023/07/24 08:05:50;;;;;;;12.20;7.68;;;21.70;69.40;;;23.14;50.15;96851.09;5032178;28;20049;-56
2023/07/24 08:08:18;;;;;;;10.00;6.53;;;21.60;69.60;;;23.10;50.10;96858.13;5031555;28;20064;-56
2023/07/24 08:10:46;;;;;;;9.98;7.47;;;21.60;70.10;;;23.02;50.22;96855.88;5027629;28;20397;-56
2023/07/24 08:13:13;;;;;;;12.50;7.35;;;21.40;69.60;;;22.97;50.71;96855.81;5028883;28;20045;-56
2023/07/24 08:15:41;;;;;;;9.15;7.00;;;21.30;70.30;;;22.92;50.19;96848.47;5032170;28;20040;-55
2023/07/24 08:18:08;;;;;;;10.30;7.40;;;21.30;70.80;;;22.88;50.72;96835.69;5031983;28;20054;-52
2023/07/24 08:20:37;;;;;;;10.05;7.00;;;21.30;71.10;;;22.87;51.25;96831.34;5031859;28;20050;-55
2023/07/24 08:23:04;;;;;;;13.23;7.75;;;21.20;71.70;;;22.80;51.71;96818.00;5032505;28;20500;-54
2023/07/24 08:25:32;;;;;;;11.05;6.55;;;21.10;73.60;;;22.75;52.32;96813.34;5031815;28;20048;-51
2023/07/24 08:28:00;;;;;;;10.50;7.38;;;21.00;74.40;;;22.71;52.97;96811.41;5030584;28;20049;-52
2023/07/24 08:30:34;;;;;;;13.55;7.93;;;21.00;76.00;;;22.64;53.36;96799.94;5031978;28;20052;-53
2023/07/24 08:33:03;;;;;;;10.88;7.40;;;20.90;77.90;;;22.63;54.24;96776.63;5031993;28;20037;-55
2023/07/24 08:35:30;;;;;;;12.25;7.45;;;20.90;79.30;;;22.63;54.41;96763.88;5032028;28;20066;-55
2023/07/24 08:37:58;;;;;;;11.10;7.05;;;20.80;80.40;;;22.65;54.64;96748.16;5031285;28;20052;-52
2023/07/24 08:40:25;;;;;;;9.57;6.45;;;20.90;81.30;;;22.65;55.16;96728.38;5031829;28;20048;-53
2023/07/24 08:42:54;;;;;;;9.27;6.72;;;20.90;82.10;;;22.67;55.47;96718.06;5031748;28;20509;-51
2023/07/24 08:45:24;;;;;;;9.85;7.38;;;21.00;82.70;;;22.69;55.35;96711.28;5030469;28;20045;-50
2023/07/24 08:47:52;;;;;;;8.38;6.47;;;21.00;82.40;;;22.72;54.68;96707.22;5030227;28;20385;-55
2023/07/24 08:50:21;;;;;;;10.75;7.28;;;21.10;80.20;;;22.72;55.11;96713.50;5022287;28;20052;-54
2023/07/24 08:52:49;;;;;;;9.43;7.10;;;21.20;81.40;;;22.74;55.41;96711.34;5031312;28;20045;-51
2023/07/24 08:55:16;;;;;;;11.00;7.53;;;21.20;82.60;;;22.75;55.68;96712.94;5030598;28;20045;-52
2023/07/24 08:57:44;;;;;;;10.65;7.05;;;21.20;83.40;;;22.79;55.62;96726.81;5023027;28;20038;-51
2023/07/24 09:00:12;;;;;;;10.60;6.78;;;21.20;83.20;;;22.86;55.21;96742.88;5032116;28;20056;-55
2023/07/24 09:02:40;;;;;;;10.55;6.35;;;21.20;82.30;;;22.87;54.90;96755.34;5031431;28;20053;-53
2023/07/24 09:05:08;;;;;;;11.10;7.07;;;21.20;81.30;;;22.91;55.07;96765.41;5030103;28;20509;-47
2023/07/24 09:07:37;;;;;;;10.18;6.88;;;21.30;81.20;;;22.94;55.61;96777.66;5030666;28;20390;-50
2023/07/24 09:10:06;;;;;;;12.70;7.60;;;21.40;82.00;;;22.99;55.41;96778.53;5031114;28;20065;-50
2023/07/24 09:12:38;;;;;;;8.63;6.47;;;21.50;81.60;;;22.97;55.72;96768.97;5031376;28;20060;-46
2023/07/24 09:15:07;;;;;;;9.68;6.68;;;21.60;81.40;;;23.08;55.53;96765.28;5031335;28;20046;-52
2023/07/24 09:17:35;;;;;;;9.23;6.97;;;21.70;80.80;;;23.18;55.35;96769.94;5030631;28;20488;-51
2023/07/24 09:20:03;;;;;;;9.82;6.40;;;21.80;80.30;;;23.24;55.43;96774.31;5031122;28;20089;-53
2023/07/24 09:22:31;;;;;;;8.85;6.53;;;21.80;80.10;;;23.31;55.20;96771.38;5042721;28;20515;-48
2023/07/24 09:25:03;;;;;;;8.45;6.15;;;21.90;79.60;;;23.39;54.77;96770.88;5030754;28;20041;-49
2023/07/24 09:27:31;;;;;;;10.88;6.45;;;22.10;78.60;;;23.44;54.36;96781.78;5030557;28;20539;-51
2023/07/24 09:30:00;;;;;;;9.70;6.57;;;22.10;77.50;;;23.52;54.71;96778.53;5030781;28;20045;-49
2023/07/24 09:32:29;;;;;;;10.20;6.32;;;22.20;77.60;;;23.59;54.74;96787.28;5013405;28;20045;-51
2023/07/24 09:34:56;;;;;;;11.10;7.55;;;22.30;77.60;;;23.65;55.03;96776.41;5030917;28;20041;-59
2023/07/24 09:37:35;;;;;;;7.60;6.65;;;22.30;78.10;;;23.72;54.84;96772.34;5030638;28;20046;-51
2023/07/24 09:40:06;;;;;;;7.80;5.90;;;22.30;78.50;;;23.81;55.00;96769.97;5030646;28;20041;-49
2023/07/24 09:42:36;;;;;;;8.15;5.60;;;22.50;78.70;;;23.86;54.52;96767.25;5030717;28;20049;-48
2023/07/24 09:45:19;;;;;;;9.80;6.75;;;22.60;77.50;;;23.92;54.44;96765.38;5030763;28;20421;-50
2023/07/24 09:47:50;;;;;;;7.05;5.78;;;22.60;77.30;;;23.94;54.68;96760.47;5021164;28;20053;-51
2023/07/24 09:50:25;;;;;;;8.55;6.35;;;22.60;78.00;;;23.93;54.69;96770.56;5013843;28;20045;-55
2023/07/24 09:52:54;;;;;;;8.15;5.78;;;22.50;78.20;;;23.88;54.71;96777.88;5030366;28;20045;-53
2023/07/24 09:55:30;;;;;;;9.15;6.60;;;22.40;78.50;;;23.91;54.54;96788.22;5029571;28;20104;-50
2023/07/24 09:58:00;;;;;;;7.78;5.95;;;22.40;78.20;;;23.85;54.01;96794.72;5022130;28;20037;-55
2023/07/24 10:00:28;;;;;;;8.82;6.00;;;22.30;77.40;;;23.81;54.16;96797.16;5030576;28;20048;-54
2023/07/24 10:02:56;;;;;;;7.57;5.25;;;22.30;77.40;;;23.76;54.19;96794.38;5029164;28;20057;-52
2023/07/24 10:05:24;;;;;;;9.15;6.63;;;22.20;77.50;;;23.68;54.40;96793.00;5030365;28;20413;-51
2023/07/24 10:07:52;;;;;;;9.98;5.90;;;22.20;77.80;;;23.64;54.60;96789.19;5013029;28;20045;-51
2023/07/24 10:10:21;;;;;;;8.77;7.03;;;22.10;78.60;;;23.63;54.87;96795.69;5030502;28;20049;-52
2023/07/24 10:12:49;;;;;;;8.27;6.00;;;22.10;78.80;;;23.56;55.24;96804.09;5030815;28;20042;-49
2023/07/24 10:15:17;;;;;;;9.57;6.13;;;21.90;80.30;;;23.51;55.80;96811.41;5029180;28;20041;-53
2023/07/24 10:17:47;;;;;;;8.13;6.05;;;21.90;81.30;;;23.46;56.02;96806.75;5031986;28;20398;-53
2023/07/24 10:20:17;;;;;;;9.05;6.10;;;21.80;81.70;;;23.47;56.17;96819.25;5034503;28;20519;-55